Latest Weather Observations for Oodnadatta

IDS60801

Issued at 9:01 pm CDT Monday 27 January 2020 (issued every 10 minutes, with the page automatically refreshed every 10 minutes)

About weather observations | Map of weather stations | Latest weather observations for SA | Other Formats
Station Details ID: 017043 Name: OODNADATTA AIRPORT Lat: -27.56 Lon: 135.45 Height: 116.5 m
Data from the previous 72 hours. | See also: Recent months at Oodnadatta
Date/Time
CDT
Temp
°C
App
Temp
°C
Dew
Point
°C
Rel
Hum
%
Delta-T
°C
Wind Press
QNH
hPa
Press
MSL
hPa
Rain since
9am
mm
Dir  Spd
km/h
Gust
km/h
Spd
kts
Gust
kts
27/09:00pm 36.5 30.8 4.7 14 17.2 SSE 24 32 13 17 1009.1 1008.3 0.0
27/08:30pm 37.2 30.6 4.2 13 17.8 SSE 28 35 15 19 1008.8 1008.0 0.0
27/08:00pm 38.0 31.1 4.8 13 18.1 SSE 30 41 16 22 1008.5 1007.7 0.0
27/07:30pm 38.5 31.9 4.1 12 18.6 S 28 39 15 21 1008.2 1007.4 0.0
27/07:00pm 39.2 33.1 4.6 12 18.9 SSE 26 39 14 21 1007.8 1007.0 0.0
27/06:30pm 39.2 33.4 4.6 12 18.9 SSE 24 39 13 21 1007.7 1006.9 0.0
27/06:00pm 39.2 33.4 4.6 12 18.9 S 24 35 13 19 1007.9 1007.1 0.0
27/05:30pm 39.4 33.7 4.7 12 19.0 S 24 37 13 20 1008.0 1007.2 0.0
27/05:00pm 39.0 33.2 4.4 12 18.8 SE 24 39 13 21 1008.2 1007.4 0.0
27/04:30pm 39.0 31.9 5.6 13 18.5 SSE 32 50 17 27 1008.4 1007.6 0.0
27/04:29pm 39.5 33.0 4.8 12 19.0 SSE 28 50 15 27 1008.4 1007.6 0.0
27/04:00pm 39.4 32.9 4.7 12 19.0 SE 28 41 15 22 1008.8 1008.0 0.0
27/03:30pm 39.8 33.8 5.1 12 19.2 SE 26 39 14 21 1009.1 1008.3 0.0
27/03:00pm 39.1 34.5 5.7 13 18.6 SSE 19 35 10 19 1009.5 1008.7 0.0
27/02:30pm 39.1 33.6 5.7 13 18.6 SSE 24 37 13 20 1009.9 1009.1 0.0
27/02:00pm 37.7 32.1 5.6 14 17.7 S 24 37 13 20 1010.5 1009.6 0.0
27/01:30pm 37.7 32.1 5.6 14 17.7 ESE 24 41 13 22 1010.9 1010.0 0.0
27/01:00pm 37.1 31.3 6.2 15 17.1 SE 26 43 14 23 1011.4 1010.5 0.0
27/12:30pm 37.0 31.5 6.1 15 17.1 SSE 24 39 13 21 1011.8 1010.9 0.0
27/12:00pm 36.8 31.3 5.9 15 17.0 SSE 24 39 13 21 1012.0 1011.1 0.0
27/11:30am 35.6 30.5 5.9 16 16.3 SSE 22 35 12 19 1012.3 1011.4 0.0
27/11:00am 35.1 30.8 7.2 18 15.5 SE 19 28 10 15 1012.4 1011.6 0.0
27/10:30am 33.1 28.6 7.1 20 14.3 SE 20 28 11 15 1012.5 1011.7 0.0
27/10:00am 31.5 27.2 7.9 23 13.1 SSE 20 26 11 14 1012.6 1011.8 0.0
27/09:30am 30.8 26.1 7.9 24 12.6 SE 22 28 12 15 1012.5 1011.7 0.0
27/09:00am 29.5 25.3 7.4 25 12.0 SE 19 26 10 14 1012.5 1011.7 0.0
27/08:30am 27.8 23.8 6.6 26 11.3 S 17 26 9 14 1012.4 1011.6 0.0
27/08:00am 24.4 22.3 1.9 23 10.7 SSE 2 9 1 5 1012.0 1011.1 0.0
27/07:30am 23.3 19.1 1.6 24 10.2 E 13 15 7 8 1011.5 1010.6 0.0
27/07:00am 23.3 19.5 1.6 24 10.2 ESE 11 13 6 7 1011.4 1010.5 0.0
27/06:30am 22.8 19.2 0.6 23 10.2 SE 9 11 5 6 1011.1 1010.2 0.0
27/06:00am 24.1 20.7 1.7 23 10.6 S 9 11 5 6 1010.8 1009.9 0.0
27/05:30am 24.2 21.2 1.8 23 10.7 SSE 7 9 4 5 1010.7 1009.8 0.0
27/05:00am 23.7 20.1 0.7 22 10.7 S 9 11 5 6 1010.5 1009.6 0.0
27/04:30am 24.0 19.7 1.0 22 10.8 SSW 13 13 7 7 1010.5 1009.6 0.0
27/04:00am 23.9 19.6 0.9 22 10.7 S 13 15 7 8 1010.5 1009.6 0.0
27/03:30am 24.1 19.7 0.4 21 11.0 S 13 15 7 8 1010.5 1009.6 0.0
27/03:00am 24.9 20.5 0.4 20 11.4 SSW 13 13 7 7 1010.3 1009.5 0.0
27/02:30am 26.0 22.1 1.3 20 11.8 SSW 11 13 6 7 1010.6 1009.7 0.0
27/02:00am 25.7 21.7 0.4 19 11.9 SSW 11 17 6 9 1010.7 1009.8 0.0
27/01:30am 26.7 24.5 1.2 19 12.2 SE 2 6 1 3 1011.0 1010.1 0.0
27/01:00am 27.5 24.5 1.1 18 12.7 SE 6 7 3 4 1011.1 1010.2 0.0
27/12:30am 27.9 24.4 1.4 18 12.9 SE 9 9 5 5 1011.1 1010.2 0.0
27/12:00am 27.9 23.2 0.6 17 13.1 SE 15 15 8 8 1011.2 1010.3 0.0
 
Date/Time
CDT
Temp
°C
App
Temp
°C
Dew
Point
°C
Rel
Hum
%
Delta-T
°C
Wind Press
QNH
hPa
Press
MSL
hPa
Rain since
9am
mm
Dir  Spd
km/h
Gust
km/h
Spd
kts
Gust
kts
26/11:30pm 29.0 24.8 1.5 17 13.5 SE 13 15 7 8 1011.1 1010.2 0.0
26/11:00pm 30.6 26.1 1.9 16 14.3 SE 15 17 8 9 1011.0 1010.1 0.0
26/10:30pm 32.7 27.3 2.7 15 15.4 SE 20 24 11 13 1010.8 1009.9 0.0
26/10:00pm 32.9 28.2 2.9 15 15.4 SSE 17 19 9 10 1010.5 1009.6 0.0
26/09:30pm 33.8 29.2 3.6 15 15.8 S 17 19 9 10 1010.0 1009.2 0.0
26/09:00pm 34.9 29.3 3.5 14 16.5 S 22 26 12 14 1009.7 1008.9 0.0
26/08:30pm 35.6 29.5 3.0 13 17.1 S 24 30 13 16 1009.5 1008.7 0.0
26/08:00pm 36.3 30.3 3.5 13 17.3 S 24 35 13 19 1009.1 1008.3 0.0
26/07:30pm 37.3 30.9 3.1 12 18.1 SSE 26 39 14 21 1008.8 1008.0 0.0
26/07:00pm 37.5 30.7 3.3 12 18.1 SSE 28 41 15 22 1008.6 1007.8 0.0
26/06:30pm 37.3 30.5 3.1 12 18.1 SSE 28 35 15 19 1008.4 1007.6 0.0
26/06:00pm 37.8 31.2 2.3 11 18.6 S 26 41 14 22 1008.6 1007.8 0.0
26/05:30pm 38.1 32.9 3.8 12 18.4 S 20 41 11 22 1008.6 1007.8 0.0
26/05:09pm 37.9 32.1 2.4 11 18.6 SSE 22 43 12 23 1008.7 1007.9 0.0
26/05:00pm 37.3 31.6 3.1 12 18.1 SSE 22 33 12 18 1008.9 1008.1 0.0
26/04:30pm 38.1 32.6 3.8 12 18.4 SSE 22 35 12 19 1009.2 1008.4 0.0
26/04:00pm 37.9 31.9 3.6 12 18.3 SSE 24 39 13 21 1009.5 1008.7 0.0
26/03:30pm 37.5 31.5 3.3 12 18.2 S 24 37 13 20 1009.9 1009.1 0.0
26/03:00pm 36.7 31.5 2.7 12 17.8 SSE 19 35 10 19 1010.2 1009.4 0.0
26/02:30pm 36.1 30.3 2.2 12 17.6 SE 22 41 12 22 1011.1 1010.2 0.0
26/02:00pm 35.6 30.3 3.0 13 17.0 SE 20 35 11 19 1011.5 1010.6 0.0
26/01:30pm 36.6 31.0 3.7 13 17.5 SSE 22 33 12 18 1011.8 1010.9 0.0
26/01:00pm 35.1 29.4 2.6 13 16.8 SSE 22 32 12 17 1012.3 1011.4 0.0
26/12:30pm 35.2 30.0 3.7 14 16.6 S 20 35 11 19 1012.8 1012.0 0.0
26/12:00pm 34.4 28.1 4.0 15 16.0 ESE 26 43 14 23 1013.2 1012.4 0.0
26/11:30am 33.7 28.3 4.4 16 15.5 ESE 22 32 12 17 1013.4 1012.6 0.0
26/11:00am 33.0 27.5 3.9 16 15.2 ESE 22 30 12 16 1013.6 1012.8 0.0
26/10:30am 31.9 27.3 3.8 17 14.6 SE 17 24 9 13 1013.6 1012.8 0.0
26/10:00am 31.1 25.6 4.0 18 14.0 SSE 22 28 12 15 1013.5 1012.7 0.0
26/09:30am 30.2 25.1 3.3 18 13.7 SSE 19 24 10 13 1013.2 1012.4 0.0
26/09:00am 28.7 24.1 3.5 20 12.7 SSE 17 20 9 11 1012.9 1012.1 0.0
26/08:30am 26.8 23.9 2.7 21 11.9 SE 7 11 4 6 1012.8 1012.0 0.0
26/08:00am 24.7 21.6 1.6 22 11.0 SE 7 11 4 6 1012.5 1011.7 0.0
26/07:30am 21.6 18.4 0.8 25 9.5 S 7 9 4 5 1012.2 1011.3 0.0
26/07:00am 21.6 17.6 0.2 24 9.7 SE 11 11 6 6 1011.8 1010.9 0.0
26/06:30am 21.2 18.1 -0.1 24 9.5 SSE 6 9 3 5 1011.5 1010.6 0.0
26/06:00am 21.6 17.5 -0.4 23 9.8 ESE 11 13 6 7 1011.3 1010.4 0.0
26/05:30am 23.2 18.9 0.9 23 10.4 S 13 15 7 8 1010.9 1010.0 0.0
26/05:00am 22.4 17.9 -0.3 22 10.2 S 13 20 7 11 1010.6 1009.7 0.0
26/04:30am 23.0 19.9 0.2 22 10.4 SSW 6 9 3 5 1010.2 1009.4 0.0
26/04:00am 24.2 21.2 0.5 21 11.0 E 6 9 3 5 1010.3 1009.5 0.0
26/03:30am 23.4 20.2 -0.8 20 10.9 SSE 6 9 3 5 1010.5 1009.6 0.0
26/03:00am 24.5 21.5 0.8 21 11.1 ESE 6 7 3 4 1010.6 1009.7 0.0
26/02:30am 24.7 21.7 0.9 21 11.2 SSE 6 7 3 4 1010.8 1009.9 0.0
26/02:00am 24.5 20.2 0.8 21 11.1 SE 13 15 7 8 1011.0 1010.1 0.0
26/01:30am 25.2 20.5 0.7 20 11.5 ESE 15 17 8 9 1011.1 1010.2 0.0
26/01:00am 26.0 20.9 0.6 19 12.0 ESE 17 19 9 10 1011.2 1010.3 0.0
26/12:30am 26.7 22.0 1.2 19 12.2 SE 15 17 8 9 1011.3 1010.4 0.0
26/12:00am 28.0 23.7 0.7 17 13.1 SE 13 17 7 9 1011.3 1010.4 0.0
 
Date/Time
CDT
Temp
°C
App
Temp
°C
Dew
Point
°C
Rel
Hum
%
Delta-T
°C
Wind Press
QNH
hPa
Press
MSL
hPa
Rain since
9am
mm
Dir  Spd
km/h
Gust
km/h
Spd
kts
Gust
kts
25/11:30pm 29.3 24.2 0.9 16 13.8 SE 17 20 9 11 1011.3 1010.4 0.0
25/11:00pm 29.0 25.0 0.7 16 13.7 SSE 11 17 6 9 1011.1 1010.2 0.0
25/10:30pm 30.0 25.6 0.6 15 14.3 SSE 13 13 7 7 1010.7 1009.8 0.0
25/10:00pm 31.3 26.6 0.6 14 15.0 S 15 17 8 9 1010.5 1009.6 0.0
25/09:30pm 32.1 27.5 1.3 14 15.3 SSE 15 17 8 9 1010.3 1009.5 0.0
25/09:00pm 33.2 28.2 1.1 13 16.1 SSE 17 19 9 10 1010.1 1009.3 0.0
25/08:30pm 34.1 29.5 1.8 13 16.4 SSE 15 20 8 11 1009.9 1009.1 0.0
25/08:00pm 34.8 29.8 1.2 12 17.0 SE 17 24 9 13 1009.6 1008.8 0.0
25/07:30pm 35.3 30.7 1.6 12 17.2 S 15 26 8 14 1009.5 1008.7 0.0
25/07:00pm 35.4 30.3 0.5 11 17.5 SSW 17 30 9 16 1009.2 1008.4 0.0
25/06:30pm 35.6 30.7 -0.7 10 17.9 S 15 24 8 13 1009.2 1008.4 0.0
25/06:00pm 35.8 30.7 0.8 11 17.7 S 17 28 9 15 1009.4 1008.6 0.0
25/05:30pm 36.1 31.0 1.0 11 17.8 SSE 17 28 9 15 1009.3 1008.5 0.0
25/05:00pm 35.2 30.2 1.5 12 17.2 SSE 17 30 9 16 1009.5 1008.7 0.0
25/04:30pm 35.1 31.1 2.6 13 16.8 ESE 13 26 7 14 1009.8 1009.0 0.0
25/04:00pm 34.7 30.2 2.3 13 16.7 SSE 15 22 8 12 1010.2 1009.4 0.0
25/03:30pm 35.0 31.3 2.5 13 16.8 SSW 11 20 6 11 1010.7 1009.8 0.0
25/03:00pm 33.8 29.9 3.6 15 15.8 SE 13 22 7 12 1011.2 1010.3 0.0
25/02:30pm 33.4 29.5 3.3 15 15.6 SSE 13 20 7 11 1011.6 1010.7 0.0
25/02:00pm 32.8 29.3 3.7 16 15.1 SE 11 22 6 12 1012.2 1011.3 0.0
25/01:30pm 32.2 29.0 4.9 18 14.4 SE 11 24 6 13 1012.7 1011.9 0.0
25/01:00pm 31.3 26.4 4.2 18 14.1 SSE 19 33 10 18 1013.3 1012.5 0.0
25/12:30pm 32.3 27.6 5.0 18 14.5 SE 19 26 10 14 1013.6 1012.8 0.0
25/12:00pm 31.9 27.3 5.4 19 14.1 SE 19 28 10 15 1013.9 1013.1 0.0
25/11:30am 30.7 26.0 5.2 20 13.4 SE 19 30 10 16 1014.2 1013.4 0.0
25/11:00am 30.4 25.6 5.6 21 13.1 ESE 20 32 11 17 1014.4 1013.6 0.0
25/10:30am 29.5 23.9 5.6 22 12.6 ESE 24 35 13 19 1014.4 1013.6 0.0
25/10:00am 29.1 23.2 5.9 23 12.3 SE 26 35 14 19 1014.4 1013.6 0.0
25/09:30am 27.8 22.2 5.4 24 11.6 SE 24 32 13 17 1014.4 1013.6 0.0
25/09:00am 26.9 21.8 5.8 26 11.0 ESE 22 28 12 15 1014.3 1013.5 0.0
25/08:30am 23.6 21.2 4.5 29 9.5 SSE 6 9 3 5 1014.1 1013.3 0.0
25/08:00am 20.4 18.7 1.8 29 8.6 CALM 0 0 0 0 1013.7 1012.9 0.0
25/07:30am 18.8 15.7 0.4 29 8.2 S 6 6 3 3 1013.5 1012.7 0.0
25/07:00am 18.3 14.6 0.0 29 8.0 SSE 9 13 5 7 1013.1 1012.3 0.0
25/06:30am 18.3 16.2 -1.0 27 8.3 CALM 0 0 0 0 1013.0 1012.2 0.0
25/06:00am 19.2 16.2 1.7 31 8.0 SSE 7 7 4 4 1012.9 1012.1 0.0
25/05:30am 18.9 17.1 1.0 30 8.0 CALM 0 0 0 0 1012.8 1012.0 0.0
25/05:00am 18.8 16.9 0.4 29 8.2 CALM 0 0 0 0 1012.8 1012.0 0.0
25/04:30am 19.1 17.1 0.2 28 8.4 CALM 0 0 0 0 1012.7 1011.9 0.0
25/04:00am 19.9 17.9 -0.1 26 8.9 CALM 0 0 0 0 1012.8 1012.0 0.0
25/03:30am 20.9 18.0 1.2 27 9.0 SE 6 7 3 4 1012.9 1012.1 0.0
25/03:00am 21.4 17.9 1.1 26 9.3 SE 9 11 5 6 1013.1 1012.3 0.0
25/02:30am 22.2 19.2 1.8 26 9.6 SSE 7 9 4 5 1013.3 1012.5 0.0
25/02:00am 22.0 18.2 1.6 26 9.5 SSE 11 11 6 6 1013.3 1012.5 0.0
25/01:30am 21.9 17.6 1.0 25 9.6 SE 13 15 7 8 1013.6 1012.8 0.0
25/01:00am 23.5 19.7 1.8 24 10.3 S 11 11 6 6 1013.8 1013.0 0.0
25/12:30am 24.0 20.3 2.2 24 10.4 S 11 13 6 7 1013.8 1013.0 0.0
25/12:00am 24.9 20.8 2.4 23 10.9 S 13 15 7 8 1014.0 1013.2 0.0
 
Date/Time
CDT
Temp
°C
App
Temp
°C
Dew
Point
°C
Rel
Hum
%
Delta-T
°C
Wind Press
QNH
hPa
Press
MSL
hPa
Rain since
9am
mm
Dir  Spd
km/h
Gust
km/h
Spd
kts
Gust
kts
24/11:30pm 25.5 21.0 2.2 22 11.3 SSE 15 17 8 9 1013.8 1013.0 0.0
24/11:00pm 26.6 22.3 3.2 22 11.6 S 15 17 8 9 1013.7 1012.9 0.0
24/10:30pm 27.3 23.0 3.1 21 12.0 S 15 17 8 9 1013.4 1012.6 0.0
24/10:00pm 28.0 23.7 3.0 20 12.5 S 15 17 8 9 1013.0 1012.2 0.0
24/09:30pm 28.8 23.5 2.9 19 13.0 S 20 26 11 14 1012.6 1011.8 0.0

Other formats

Comma delimited format used in spreadsheet applications
http://www.bom.gov.au/fwo/IDS60801/IDS60801.94476.axf

JavaScript Object Notation format (JSON) in row-major order
http://www.bom.gov.au/fwo/IDS60801/IDS60801.94476.json

Data quality

Most of these data are generated automatically and are frequently updated. Quality checks on data are not normally performed. It is possible for incorrect values to appear. Refer to information at About Latest Weather Observations and please check the disclaimer before using these data.